createdAt,value
2023-03-15T00:02:27.455Z,8.00
2023-03-15T00:04:55.642Z,12.43
2023-03-15T00:07:26.063Z,11.50
2023-03-15T00:09:53.975Z,7.22
2023-03-15T00:12:23.275Z,9.20
2023-03-15T00:14:51.042Z,10.50
2023-03-15T00:17:18.664Z,10.02
2023-03-15T00:19:48.121Z,10.23
2023-03-15T00:22:16.035Z,8.30
2023-03-15T00:24:45.169Z,7.43
2023-03-15T00:27:12.732Z,5.90
2023-03-15T00:29:40.359Z,10.95
2023-03-15T00:32:07.908Z,7.85
2023-03-15T00:34:35.807Z,10.13
2023-03-15T00:37:03.729Z,6.38
2023-03-15T00:39:31.906Z,11.05
2023-03-15T00:42:01.008Z,8.30
2023-03-15T00:44:29.217Z,10.35
2023-03-15T00:46:57.102Z,11.48
2023-03-15T00:49:25.121Z,7.80
2023-03-15T00:51:56.279Z,7.28
2023-03-15T00:54:24.118Z,7.30
2023-03-15T00:56:54.330Z,7.95
2023-03-15T00:59:23.785Z,7.45
2023-03-15T01:01:51.483Z,5.72
2023-03-15T01:04:19.614Z,12.52
2023-03-15T01:06:47.405Z,7.63
2023-03-15T01:09:15.041Z,10.25
2023-03-15T01:11:42.754Z,8.20
2023-03-15T01:14:10.620Z,12.20
2023-03-15T01:16:39.614Z,5.38
2023-03-15T01:19:07.457Z,6.70
2023-03-15T01:21:35.173Z,9.32
2023-03-15T01:24:04.055Z,10.20
2023-03-15T01:26:32.370Z,7.15
2023-03-15T01:29:00.497Z,11.00
2023-03-15T01:31:30.374Z,8.32
2023-03-15T01:34:01.000Z,8.05
2023-03-15T01:36:28.630Z,7.35
2023-03-15T01:38:56.342Z,8.05
2023-03-15T01:41:26.275Z,6.00
2023-03-15T01:43:54.305Z,6.68
2023-03-15T01:46:24.510Z,11.27
2023-03-15T01:48:55.752Z,9.57
2023-03-15T01:51:28.483Z,9.45
2023-03-15T01:53:59.113Z,9.68
2023-03-15T01:56:28.008Z,8.95
2023-03-15T01:59:00.263Z,10.88
2023-03-15T02:01:27.973Z,9.70
2023-03-15T02:04:00.057Z,9.50
2023-03-15T02:06:29.037Z,13.32
2023-03-15T02:09:00.529Z,11.90
2023-03-15T02:11:28.723Z,10.93
2023-03-15T02:13:57.961Z,13.88
2023-03-15T02:16:28.569Z,8.65
2023-03-15T02:18:56.081Z,7.70
2023-03-15T02:21:29.922Z,10.88
2023-03-15T02:24:04.992Z,10.95
2023-03-15T02:26:36.242Z,10.02
2023-03-15T02:29:06.512Z,11.48
2023-03-15T02:31:38.265Z,10.85
2023-03-15T02:34:06.828Z,8.18
2023-03-15T02:36:35.076Z,8.82
2023-03-15T02:39:03.434Z,14.48
2023-03-15T02:41:34.583Z,10.65
2023-03-15T02:44:04.643Z,15.27
2023-03-15T02:46:33.846Z,11.38
2023-03-15T02:49:04.338Z,13.68
2023-03-15T02:51:34.545Z,9.65
2023-03-15T02:54:02.224Z,17.13
2023-03-15T02:56:29.839Z,12.57
2023-03-15T02:58:57.668Z,14.27
2023-03-15T03:01:25.738Z,11.90
2023-03-15T03:03:54.621Z,20.40
2023-03-15T03:06:22.461Z,12.35
2023-03-15T03:08:50.671Z,13.82
2023-03-15T03:11:18.306Z,9.88
2023-03-15T03:13:49.271Z,10.95
2023-03-15T03:16:17.298Z,9.43
2023-03-15T03:18:44.881Z,14.68
2023-03-15T03:21:14.830Z,9.50
2023-03-15T03:23:46.370Z,11.38
2023-03-15T03:26:16.977Z,15.20
2023-03-15T03:28:45.674Z,9.60
2023-03-15T03:31:17.349Z,12.27
2023-03-15T03:33:47.061Z,12.63
2023-03-15T03:36:17.398Z,16.73
2023-03-15T03:38:46.167Z,8.63
2023-03-15T03:41:14.570Z,8.63
2023-03-15T03:43:43.504Z,15.00
2023-03-15T03:46:11.445Z,11.95
2023-03-15T03:48:39.174Z,15.45
2023-03-15T03:51:07.041Z,14.02
2023-03-15T03:53:36.151Z,12.10
2023-03-15T03:56:05.314Z,16.92
2023-03-15T03:58:39.108Z,14.30
2023-03-15T04:01:06.822Z,14.15
2023-03-15T04:03:34.902Z,12.18
2023-03-15T04:06:05.732Z,10.65
2023-03-15T04:08:34.121Z,12.13
2023-03-15T04:11:05.328Z,12.07
2023-03-15T04:13:33.978Z,12.60
2023-03-15T04:16:04.137Z,12.82
2023-03-15T04:18:31.824Z,11.20
2023-03-15T04:20:59.510Z,21.15
2023-03-15T04:23:27.146Z,15.20
2023-03-15T04:25:55.601Z,13.65
2023-03-15T04:28:24.799Z,10.02
2023-03-15T04:30:52.523Z,18.10
2023-03-15T04:33:20.075Z,12.80
2023-03-15T04:35:47.640Z,19.27
2023-03-15T04:38:17.809Z,11.95
2023-03-15T04:40:45.421Z,15.82
2023-03-15T04:43:12.932Z,17.00
2023-03-15T04:45:41.831Z,13.93
2023-03-15T04:48:09.484Z,13.88
2023-03-15T04:50:37.099Z,14.27
2023-03-15T04:53:04.784Z,15.05
2023-03-15T04:55:32.351Z,17.15
2023-03-15T04:58:01.601Z,10.70
2023-03-15T05:00:29.460Z,17.42
2023-03-15T05:02:58.638Z,10.02
2023-03-15T05:05:26.156Z,12.18
2023-03-15T05:07:54.772Z,10.85
2023-03-15T05:10:22.372Z,18.33
2023-03-15T05:12:49.935Z,14.20
2023-03-15T05:15:17.739Z,13.32
2023-03-15T05:17:46.612Z,15.68
2023-03-15T05:20:16.555Z,13.18
2023-03-15T05:22:44.478Z,13.90
2023-03-15T05:25:12.322Z,12.65
2023-03-15T05:27:40.055Z,15.05
2023-03-15T05:30:08.672Z,17.80
2023-03-15T05:32:39.510Z,14.70
2023-03-15T05:35:08.064Z,17.50
2023-03-15T05:37:37.114Z,17.10
2023-03-15T05:40:08.135Z,13.95
2023-03-15T05:42:36.009Z,14.55
2023-03-15T05:45:03.826Z,13.52
2023-03-15T05:47:33.165Z,10.65
2023-03-15T05:50:01.585Z,12.23
2023-03-15T05:52:30.053Z,12.77
2023-03-15T05:55:00.257Z,10.10
2023-03-15T05:57:29.652Z,11.27
2023-03-15T05:59:57.234Z,9.55
2023-03-15T06:02:25.297Z,13.15
2023-03-15T06:04:52.848Z,12.32
2023-03-15T06:07:21.274Z,16.98
2023-03-15T06:09:48.929Z,13.60
2023-03-15T06:12:18.114Z,17.15
2023-03-15T06:14:45.644Z,12.27
2023-03-15T06:17:13.239Z,12.82
2023-03-15T06:19:40.742Z,13.45
2023-03-15T06:22:08.813Z,17.05
2023-03-15T06:24:36.959Z,12.27
2023-03-15T06:27:04.773Z,14.27
2023-03-15T06:29:34.298Z,15.68
2023-03-15T06:32:10.584Z,14.82
2023-03-15T06:34:38.674Z,12.27
2023-03-15T06:37:22.830Z,14.45
2023-03-15T06:40:19.927Z,16.67
2023-03-15T06:45:45.814Z,15.55
2023-03-15T06:48:16.533Z,22.00
2023-03-15T06:50:54.130Z,19.42
2023-03-15T06:53:28.549Z,19.35
2023-03-15T06:56:11.460Z,16.75
2023-03-15T06:58:45.541Z,15.27
2023-03-15T07:01:23.698Z,8.57
2023-03-15T07:03:59.907Z,13.02
2023-03-15T07:06:31.174Z,11.07
2023-03-15T07:09:01.529Z,11.52
2023-03-15T07:11:32.190Z,13.90
2023-03-15T07:14:06.014Z,14.05
2023-03-15T07:16:37.554Z,13.73
2023-03-15T07:19:05.396Z,15.15
2023-03-15T07:21:33.366Z,17.40
2023-03-15T07:24:01.257Z,15.07
2023-03-15T07:26:29.096Z,25.15
2023-03-15T07:28:59.322Z,13.50
2023-03-15T07:31:30.604Z,14.35
2023-03-15T07:34:03.883Z,17.80
2023-03-15T07:36:37.695Z,16.27
2023-03-15T07:39:06.225Z,17.08
2023-03-15T07:41:34.283Z,11.85
2023-03-15T07:44:01.974Z,13.95
2023-03-15T07:46:29.848Z,18.40
2023-03-15T07:48:57.705Z,13.95
2023-03-15T07:51:26.947Z,14.18
2023-03-15T07:53:54.683Z,13.80
2023-03-15T07:56:22.346Z,11.98
2023-03-15T07:58:49.999Z,14.18
2023-03-15T08:01:19.919Z,10.90
2023-03-15T08:03:47.626Z,13.43
2023-03-15T08:08:58.190Z,11.50
2023-03-15T08:11:25.957Z,14.02
2023-03-15T08:13:53.780Z,13.45
2023-03-15T08:16:21.363Z,12.20
2023-03-15T08:18:49.199Z,10.82
2023-03-15T08:21:16.841Z,12.85
2023-03-15T08:23:44.602Z,13.38
2023-03-15T08:26:13.987Z,10.13
2023-03-15T08:28:41.706Z,10.90
2023-03-15T08:31:09.404Z,9.23
2023-03-15T08:33:38.021Z,11.73
2023-03-15T08:36:06.017Z,9.02
2023-03-15T08:38:33.727Z,11.05
2023-03-15T08:41:01.293Z,13.02
2023-03-15T08:43:30.440Z,12.15
2023-03-15T08:46:01.397Z,8.07
2023-03-15T08:48:29.598Z,12.75
2023-03-15T08:50:58.278Z,12.27
2023-03-15T08:53:26.129Z,14.75
2023-03-15T08:55:53.909Z,12.10
2023-03-15T08:58:21.566Z,11.48
2023-03-15T09:00:57.541Z,9.27
2023-03-15T09:03:25.212Z,9.75
2023-03-15T09:05:56.828Z,11.02
2023-03-15T09:08:25.394Z,9.30
2023-03-15T09:10:55.184Z,9.38
2023-03-15T09:13:22.938Z,8.65
2023-03-15T09:15:53.544Z,8.85
2023-03-15T09:18:22.715Z,8.00
2023-03-15T09:20:50.748Z,10.15
2023-03-15T09:23:18.401Z,14.65
2023-03-15T09:25:46.153Z,8.68
2023-03-15T09:28:13.992Z,9.65
2023-03-15T09:30:48.239Z,8.63
2023-03-15T09:33:20.150Z,13.80
2023-03-15T09:36:02.943Z,10.20
2023-03-15T09:38:31.242Z,8.45
2023-03-15T09:41:00.902Z,13.00
2023-03-15T09:43:54.221Z,9.90
2023-03-15T09:46:28.168Z,10.48
2023-03-15T09:49:05.096Z,11.10
2023-03-15T09:51:47.963Z,11.45
2023-03-15T09:54:24.041Z,10.00
2023-03-15T09:56:56.747Z,13.63
2023-03-15T09:59:27.107Z,9.75
2023-03-15T10:02:00.393Z,9.93
2023-03-15T10:04:45.595Z,11.73
2023-03-15T10:07:19.581Z,12.70
2023-03-15T10:09:51.787Z,19.33
2023-03-15T10:12:26.437Z,9.88
2023-03-15T10:15:05.752Z,14.32
2023-03-15T10:17:39.355Z,14.77
2023-03-15T10:20:11.903Z,15.52
2023-03-15T10:22:45.862Z,14.75
2023-03-15T10:25:19.424Z,11.20
2023-03-15T10:27:50.375Z,10.40
2023-03-15T10:30:22.935Z,8.38
2023-03-15T10:32:56.080Z,9.73
2023-03-15T10:35:24.276Z,14.33
2023-03-15T10:37:53.513Z,9.30
2023-03-15T10:40:37.696Z,11.10
2023-03-15T10:43:17.569Z,12.63
2023-03-15T10:45:52.111Z,14.68
2023-03-15T10:48:23.408Z,17.35
2023-03-15T10:50:54.587Z,12.45
2023-03-15T10:53:29.702Z,17.35
2023-03-15T10:56:02.101Z,8.77
2023-03-15T10:58:31.556Z,9.88
2023-03-15T11:01:01.466Z,11.43
2023-03-15T11:03:34.175Z,10.05
2023-03-15T11:06:03.413Z,12.48
2023-03-15T11:08:45.221Z,11.90
2023-03-15T11:11:16.479Z,10.20
2023-03-15T11:13:59.243Z,10.55
2023-03-15T11:16:27.134Z,11.43
2023-03-15T11:19:01.895Z,8.82
2023-03-15T11:21:33.659Z,10.68
2023-03-15T11:24:07.613Z,11.73
2023-03-15T11:26:36.360Z,12.45
2023-03-15T11:29:09.727Z,17.65
2023-03-15T11:31:42.347Z,10.40
2023-03-15T11:39:45.591Z,16.75
2023-03-15T11:42:16.576Z,11.52
2023-03-15T11:44:47.026Z,16.80
2023-03-15T11:47:17.946Z,12.75
2023-03-15T11:49:50.002Z,10.80
2023-03-15T11:52:19.137Z,12.10
2023-03-15T11:54:51.506Z,9.80
2023-03-15T11:57:50.998Z,11.55
2023-03-15T12:00:44.209Z,14.50
2023-03-15T12:03:41.002Z,17.55
2023-03-15T12:06:34.582Z,11.40
2023-03-15T12:09:05.270Z,10.40
2023-03-15T12:11:43.546Z,13.90
2023-03-15T12:14:30.966Z,11.15
2023-03-15T12:17:13.600Z,14.85
2023-03-15T12:19:49.810Z,10.25
2023-03-15T12:22:21.016Z,12.18
2023-03-15T12:24:50.885Z,10.75
2023-03-15T12:27:22.408Z,8.65
2023-03-15T12:29:52.139Z,11.88
2023-03-15T12:32:23.382Z,12.55
2023-03-15T12:35:16.653Z,10.93
2023-03-15T12:37:46.694Z,12.90
2023-03-15T12:40:33.893Z,10.25
2023-03-15T12:43:03.785Z,13.88
2023-03-15T12:45:41.688Z,13.00
2023-03-15T12:48:22.904Z,12.05
2023-03-15T12:50:56.452Z,12.13
2023-03-15T12:53:26.843Z,12.52
2023-03-15T12:56:06.185Z,11.77
2023-03-15T12:58:38.086Z,13.43
2023-03-15T13:01:07.225Z,14.30
2023-03-15T13:03:36.711Z,11.43
2023-03-15T13:06:08.683Z,16.58
2023-03-15T13:08:42.092Z,11.73
2023-03-15T13:11:15.276Z,11.70
2023-03-15T13:13:55.974Z,13.02
2023-03-15T13:16:28.005Z,12.88
2023-03-15T13:19:00.313Z,13.77
2023-03-15T13:21:31.417Z,11.75
2023-03-15T13:24:00.134Z,23.42
2023-03-15T13:26:35.438Z,14.63
2023-03-15T13:29:09.440Z,16.00
2023-03-15T13:31:38.579Z,12.00
2023-03-15T13:34:12.560Z,10.88
2023-03-15T13:36:41.611Z,8.77
2023-03-15T13:39:11.689Z,10.25
2023-03-15T13:41:39.572Z,10.88
2023-03-15T13:44:15.552Z,10.55
2023-03-15T13:46:43.441Z,7.47
2023-03-15T13:49:14.002Z,9.38
2023-03-15T13:51:42.221Z,12.18
2023-03-15T13:54:13.960Z,11.48
2023-03-15T13:56:49.678Z,8.30
2023-03-15T13:59:19.116Z,13.63
2023-03-15T14:01:46.900Z,9.90
2023-03-15T14:04:16.974Z,8.95
2023-03-15T14:06:45.840Z,15.70
2023-03-15T14:09:18.871Z,8.32
2023-03-15T14:11:46.433Z,9.35
2023-03-15T14:14:23.115Z,10.10
2023-03-15T14:17:04.281Z,17.08
2023-03-15T14:19:39.648Z,10.55
2023-03-15T14:22:15.600Z,9.43
2023-03-15T14:24:44.655Z,11.55
2023-03-15T14:27:20.179Z,10.77
2023-03-15T14:29:50.239Z,11.45
2023-03-15T14:32:28.652Z,12.63
2023-03-15T14:35:03.522Z,13.35
2023-03-15T14:37:32.844Z,13.00
2023-03-15T14:40:14.968Z,18.08
2023-03-15T14:42:42.829Z,12.80
2023-03-15T14:45:12.397Z,14.25
2023-03-15T14:47:55.392Z,13.75
2023-03-15T14:50:24.778Z,16.58
2023-03-15T14:55:55.545Z,18.90
2023-03-15T14:58:42.089Z,16.58
2023-03-15T15:01:20.213Z,13.98
2023-03-15T15:03:54.268Z,16.70
2023-03-15T15:06:22.547Z,18.58
2023-03-15T15:08:54.505Z,13.85
2023-03-15T15:11:22.374Z,13.57
2023-03-15T15:13:52.583Z,12.13
2023-03-15T15:16:22.420Z,13.55
2023-03-15T15:18:51.070Z,13.05
2023-03-15T15:21:21.271Z,19.60
2023-03-15T15:23:57.781Z,13.73
2023-03-15T15:26:27.491Z,17.42
2023-03-15T15:28:56.480Z,11.32
2023-03-15T15:37:12.078Z,19.48
2023-03-15T15:39:45.609Z,15.48
2023-03-15T15:59:47.391Z,12.98
2023-03-15T16:02:18.310Z,10.63
2023-03-15T16:04:47.909Z,17.33
2023-03-15T16:07:20.593Z,13.98
2023-03-15T16:09:49.340Z,22.42
2023-03-15T16:12:17.996Z,12.30
2023-03-15T16:14:46.951Z,12.43
2023-03-15T16:17:19.721Z,11.07
2023-03-15T16:19:53.829Z,13.70
2023-03-15T16:22:25.563Z,16.85
2023-03-15T16:24:54.439Z,12.77
2023-03-15T16:27:23.855Z,13.07
2023-03-15T16:35:42.332Z,11.07
2023-03-15T16:38:14.475Z,11.57
2023-03-15T16:40:43.406Z,12.77
2023-03-15T16:43:12.027Z,16.88
2023-03-15T16:45:42.912Z,18.48
2023-03-15T16:51:06.018Z,16.17
2023-03-15T16:53:37.514Z,16.13
2023-03-15T16:56:30.313Z,13.60
2023-03-15T16:59:28.592Z,16.90
2023-03-15T17:05:37.889Z,23.42
2023-03-15T17:08:30.251Z,17.80
2023-03-15T17:17:41.446Z,25.52
2023-03-15T17:20:12.837Z,21.80
2023-03-15T17:22:46.726Z,18.13
2023-03-15T17:25:15.588Z,23.13
2023-03-15T17:27:44.292Z,31.23
2023-03-15T17:30:19.580Z,21.95
2023-03-15T17:32:52.345Z,30.95
2023-03-15T17:35:21.573Z,26.35
2023-03-15T17:37:52.032Z,31.25
2023-03-15T17:40:24.205Z,31.08
2023-03-15T17:42:52.831Z,29.55
2023-03-15T17:45:22.264Z,31.83
2023-03-15T17:47:53.400Z,32.95
2023-03-15T17:50:49.756Z,35.60
2023-03-15T17:53:18.854Z,31.17
2023-03-15T17:55:47.925Z,27.75
2023-03-15T17:58:26.311Z,30.33
2023-03-15T18:01:00.755Z,26.88
2023-03-15T18:03:30.056Z,34.63
2023-03-15T18:06:01.347Z,30.80
2023-03-15T18:08:32.694Z,25.38
2023-03-15T18:11:00.709Z,27.73
2023-03-15T18:13:29.115Z,34.40
2023-03-15T18:16:00.329Z,31.05
2023-03-15T18:18:29.855Z,29.13
2023-03-15T18:20:57.817Z,29.17
2023-03-15T18:23:32.746Z,34.22
2023-03-15T18:26:02.503Z,27.85
2023-03-15T18:28:37.339Z,28.27
2023-03-15T18:34:09.180Z,32.30
2023-03-15T18:36:36.747Z,30.77
2023-03-15T18:39:06.450Z,23.90
2023-03-15T18:41:36.554Z,26.63
2023-03-15T18:47:22.984Z,26.27
2023-03-15T18:49:55.506Z,28.63
2023-03-15T18:52:31.351Z,24.88
2023-03-15T18:54:59.220Z,37.70
2023-03-15T18:57:26.910Z,38.78
2023-03-15T19:00:16.517Z,29.85
2023-03-15T19:02:52.336Z,34.92
2023-03-15T19:05:26.592Z,36.97
2023-03-15T19:10:26.879Z,36.10
2023-03-15T19:16:32.537Z,29.95
2023-03-15T19:19:05.734Z,37.72
2023-03-15T19:21:47.436Z,34.92
2023-03-15T19:24:22.086Z,34.83
2023-03-15T19:26:55.462Z,31.98
2023-03-15T19:32:17.183Z,34.85
2023-03-15T19:35:05.739Z,33.20
2023-03-15T19:44:01.677Z,36.58
2023-03-15T19:46:43.347Z,38.35
2023-03-15T19:49:11.365Z,34.78
2023-03-15T19:51:40.591Z,34.70
2023-03-15T19:54:08.282Z,37.72
2023-03-15T19:59:29.173Z,34.80
2023-03-15T20:01:57.170Z,37.72
2023-03-15T20:04:27.501Z,36.38
2023-03-15T20:06:57.264Z,42.03
2023-03-15T20:09:25.068Z,40.72
2023-03-15T20:11:54.385Z,37.05
2023-03-15T20:14:25.409Z,43.53
2023-03-15T20:16:53.572Z,45.13
2023-03-15T20:19:21.383Z,43.28
2023-03-15T20:24:52.045Z,36.47
2023-03-15T20:27:22.095Z,43.08
2023-03-15T20:30:16.981Z,42.47
2023-03-15T20:32:45.563Z,40.58
2023-03-15T20:35:13.159Z,44.83
2023-03-15T20:37:41.721Z,40.25
2023-03-15T20:40:11.275Z,39.88
2023-03-15T20:42:40.324Z,39.38
2023-03-15T20:48:01.792Z,37.70
2023-03-15T20:50:29.369Z,49.45
2023-03-15T20:52:57.665Z,43.88
2023-03-15T20:55:26.082Z,45.72
2023-03-15T20:57:55.072Z,38.95
2023-03-15T21:00:23.389Z,45.80
2023-03-15T21:05:47.486Z,39.38
2023-03-15T21:08:17.450Z,41.63
2023-03-15T21:10:50.400Z,42.53
2023-03-15T21:13:22.438Z,39.65
2023-03-15T21:15:53.424Z,33.38
2023-03-15T21:18:22.394Z,37.67
2023-03-15T21:21:00.744Z,36.22
2023-03-15T21:23:31.647Z,43.53
2023-03-15T21:26:02.274Z,41.35
2023-03-15T21:28:31.766Z,39.17
2023-03-15T21:31:00.380Z,33.58
2023-03-15T21:33:32.192Z,42.08
2023-03-15T21:36:00.961Z,38.75
2023-03-15T21:41:23.173Z,40.35
2023-03-15T21:43:52.996Z,39.13
2023-03-15T21:46:21.256Z,30.98
2023-03-15T21:48:52.659Z,35.75
2023-03-15T21:51:22.261Z,41.85
2023-03-15T21:53:50.806Z,38.83
2023-03-15T21:56:26.440Z,35.95
2023-03-15T21:58:57.509Z,39.10
2023-03-15T22:01:29.495Z,52.60
2023-03-15T22:03:57.081Z,38.20
2023-03-15T22:06:24.654Z,32.65
2023-03-15T22:08:52.905Z,43.20
2023-03-15T22:11:22.509Z,29.17
2023-03-15T22:13:50.453Z,39.70
2023-03-15T22:16:21.630Z,30.25
2023-03-15T22:18:49.184Z,32.22
2023-03-15T22:21:17.201Z,33.42
2023-03-15T22:23:45.523Z,36.35
2023-03-15T22:26:13.103Z,36.08
2023-03-15T22:28:40.997Z,29.92
2023-03-15T22:31:14.523Z,28.23
2023-03-15T22:33:43.602Z,34.33
2023-03-15T22:36:12.096Z,28.52
2023-03-15T22:38:43.776Z,39.97
2023-03-15T22:41:14.106Z,28.30
2023-03-15T22:43:41.886Z,31.50
2023-03-15T22:46:10.027Z,39.47
2023-03-15T22:48:37.874Z,35.28
2023-03-15T22:51:19.722Z,33.13
2023-03-15T22:53:47.425Z,36.35
2023-03-15T22:56:16.687Z,36.40
2023-03-15T22:58:44.205Z,36.33
2023-03-15T23:01:11.836Z,37.47
2023-03-15T23:03:39.433Z,40.83
2023-03-15T23:06:18.083Z,37.22
2023-03-15T23:08:47.542Z,34.20
2023-03-15T23:11:15.118Z,35.45
2023-03-15T23:13:48.618Z,39.78
2023-03-15T23:16:16.548Z,32.72
2023-03-15T23:18:44.621Z,33.33
2023-03-15T23:21:17.011Z,38.78
2023-03-15T23:23:45.805Z,39.13
2023-03-15T23:26:16.927Z,34.28
2023-03-15T23:28:45.371Z,35.70
2023-03-15T23:31:13.090Z,33.38
2023-03-15T23:33:54.708Z,38.78
2023-03-15T23:36:27.322Z,32.38
2023-03-15T23:39:27.993Z,33.45
2023-03-15T23:41:58.079Z,32.20
2023-03-15T23:44:26.901Z,34.10
2023-03-15T23:46:54.703Z,33.90
2023-03-15T23:49:26.672Z,33.15
2023-03-15T23:51:55.231Z,30.55
2023-03-15T23:54:32.522Z,33.08
2023-03-15T23:57:02.778Z,36.40
2023-03-15T23:59:30.378Z,28.15
